sensor_id;sensor_type;location;lat;lon;timestamp;temperature;humidity
54260;DHT22;40172;53.022;7.012;2023-04-26T00:01:20;2.30;99.90
54260;DHT22;40172;53.022;7.012;2023-04-26T00:03:46;3.10;99.90
54260;DHT22;40172;53.022;7.012;2023-04-26T00:06:11;2.30;99.90
54260;DHT22;40172;53.022;7.012;2023-04-26T00:08:39;2.30;99.90
54260;DHT22;40172;53.022;7.012;2023-04-26T00:11:05;2.30;99.90
54260;DHT22;40172;53.022;7.012;2023-04-26T00:13:30;2.40;99.90
54260;DHT22;40172;53.022;7.012;2023-04-26T00:15:56;2.50;99.90
54260;DHT22;40172;53.022;7.012;2023-04-26T00:18:22;2.70;99.90
54260;DHT22;40172;53.022;7.012;2023-04-26T00:20:47;2.60;99.90
54260;DHT22;40172;53.022;7.012;2023-04-26T00:23:13;2.70;99.90
54260;DHT22;40172;53.022;7.012;2023-04-26T00:25:38;2.80;99.90
54260;DHT22;40172;53.022;7.012;2023-04-26T00:28:04;2.90;99.90
54260;DHT22;40172;53.022;7.012;2023-04-26T00:30:30;2.90;99.90
54260;DHT22;40172;53.022;7.012;2023-04-26T00:32:55;2.90;99.90
54260;DHT22;40172;53.022;7.012;2023-04-26T00:35:21;2.80;99.90
54260;DHT22;40172;53.022;7.012;2023-04-26T00:37:46;2.70;99.90
54260;DHT22;40172;53.022;7.012;2023-04-26T00:40:13;2.60;99.90
54260;DHT22;40172;53.022;7.012;2023-04-26T00:42:40;2.60;99.90
54260;DHT22;40172;53.022;7.012;2023-04-26T00:45:06;2.50;99.90
54260;DHT22;40172;53.022;7.012;2023-04-26T00:47:32;2.40;99.90
54260;DHT22;40172;53.022;7.012;2023-04-26T00:49:59;2.30;99.90
54260;DHT22;40172;53.022;7.012;2023-04-26T00:52:26;2.20;99.90
54260;DHT22;40172;53.022;7.012;2023-04-26T00:54:53;2.10;99.90
54260;DHT22;40172;53.022;7.012;2023-04-26T00:57:19;2.10;99.90
54260;DHT22;40172;53.022;7.012;2023-04-26T00:59:44;2.10;99.90
54260;DHT22;40172;53.022;7.012;2023-04-26T01:02:10;2.20;99.90
54260;DHT22;40172;53.022;7.012;2023-04-26T01:04:35;1.90;99.90
54260;DHT22;40172;53.022;7.012;2023-04-26T01:07:02;1.90;99.90
54260;DHT22;40172;53.022;7.012;2023-04-26T01:09:30;1.90;99.90
54260;DHT22;40172;53.022;7.012;2023-04-26T01:11:56;1.90;99.90
54260;DHT22;40172;53.022;7.012;2023-04-26T01:14:23;1.80;99.90
54260;DHT22;40172;53.022;7.012;2023-04-26T01:16:49;1.90;99.90
54260;DHT22;40172;53.022;7.012;2023-04-26T01:19:15;2.00;99.90
54260;DHT22;40172;53.022;7.012;2023-04-26T01:21:41;2.20;99.90
54260;DHT22;40172;53.022;7.012;2023-04-26T01:24:11;2.20;99.90
54260;DHT22;40172;53.022;7.012;2023-04-26T01:26:41;2.20;99.90
54260;DHT22;40172;53.022;7.012;2023-04-26T01:29:18;2.20;99.90
54260;DHT22;40172;53.022;7.012;2023-04-26T01:31:44;2.20;99.90
54260;DHT22;40172;53.022;7.012;2023-04-26T01:34:10;2.10;99.90
54260;DHT22;40172;53.022;7.012;2023-04-26T01:36:36;2.10;99.90
54260;DHT22;40172;53.022;7.012;2023-04-26T01:39:02;2.00;99.90
54260;DHT22;40172;53.022;7.012;2023-04-26T01:41:28;2.10;99.90
54260;DHT22;40172;53.022;7.012;2023-04-26T01:43:54;2.10;99.90
54260;DHT22;40172;53.022;7.012;2023-04-26T01:46:20;2.30;99.90
54260;DHT22;40172;53.022;7.012;2023-04-26T01:48:46;2.00;99.90
54260;DHT22;40172;53.022;7.012;2023-04-26T01:51:12;2.00;99.90
54260;DHT22;40172;53.022;7.012;2023-04-26T01:53:38;2.20;99.90
54260;DHT22;40172;53.022;7.012;2023-04-26T01:56:03;2.00;99.90
54260;DHT22;40172;53.022;7.012;2023-04-26T01:58:30;2.00;99.90
54260;DHT22;40172;53.022;7.012;2023-04-26T02:01:03;2.00;99.90
54260;DHT22;40172;53.022;7.012;2023-04-26T02:03:28;2.00;99.90
54260;DHT22;40172;53.022;7.012;2023-04-26T02:05:54;1.90;99.90
54260;DHT22;40172;53.022;7.012;2023-04-26T02:08:20;2.00;99.90
54260;DHT22;40172;53.022;7.012;2023-04-26T02:10:45;1.90;99.90
54260;DHT22;40172;53.022;7.012;2023-04-26T02:13:11;1.90;99.90
54260;DHT22;40172;53.022;7.012;2023-04-26T02:15:36;1.90;99.90
54260;DHT22;40172;53.022;7.012;2023-04-26T02:18:02;2.00;99.90
54260;DHT22;40172;53.022;7.012;2023-04-26T02:20:28;1.90;99.90
54260;DHT22;40172;53.022;7.012;2023-04-26T02:22:53;2.20;99.90
54260;DHT22;40172;53.022;7.012;2023-04-26T02:25:19;1.90;99.90
54260;DHT22;40172;53.022;7.012;2023-04-26T02:27:44;1.90;99.90
54260;DHT22;40172;53.022;7.012;2023-04-26T02:30:10;2.20;99.90
54260;DHT22;40172;53.022;7.012;2023-04-26T02:32:36;1.90;99.90
54260;DHT22;40172;53.022;7.012;2023-04-26T02:35:02;2.00;99.90
54260;DHT22;40172;53.022;7.012;2023-04-26T02:37:29;2.10;99.90
54260;DHT22;40172;53.022;7.012;2023-04-26T02:39:55;2.10;99.90
54260;DHT22;40172;53.022;7.012;2023-04-26T02:42:20;2.30;99.90
54260;DHT22;40172;53.022;7.012;2023-04-26T02:44:46;2.10;99.90
54260;DHT22;40172;53.022;7.012;2023-04-26T02:47:11;2.30;99.90
54260;DHT22;40172;53.022;7.012;2023-04-26T02:49:37;2.10;99.90
54260;DHT22;40172;53.022;7.012;2023-04-26T02:52:03;2.10;99.90
54260;DHT22;40172;53.022;7.012;2023-04-26T02:54:29;2.10;99.90
54260;DHT22;40172;53.022;7.012;2023-04-26T02:56:55;2.20;99.90
54260;DHT22;40172;53.022;7.012;2023-04-26T02:59:20;2.40;99.90
54260;DHT22;40172;53.022;7.012;2023-04-26T03:01:46;2.20;99.90
54260;DHT22;40172;53.022;7.012;2023-04-26T03:04:12;2.20;99.90
54260;DHT22;40172;53.022;7.012;2023-04-26T03:06:37;2.20;99.90
54260;DHT22;40172;53.022;7.012;2023-04-26T03:09:03;2.20;99.90
54260;DHT22;40172;53.022;7.012;2023-04-26T03:11:30;2.30;99.90
54260;DHT22;40172;53.022;7.012;2023-04-26T03:13:56;2.20;99.90
54260;DHT22;40172;53.022;7.012;2023-04-26T03:16:22;2.10;99.90
54260;DHT22;40172;53.022;7.012;2023-04-26T03:18:48;2.00;99.90
54260;DHT22;40172;53.022;7.012;2023-04-26T03:21:14;2.00;99.90
54260;DHT22;40172;53.022;7.012;2023-04-26T03:23:39;2.00;99.90
54260;DHT22;40172;53.022;7.012;2023-04-26T03:26:05;1.90;99.90
54260;DHT22;40172;53.022;7.012;2023-04-26T03:28:31;1.80;99.90
54260;DHT22;40172;53.022;7.012;2023-04-26T03:30:56;1.80;99.90
54260;DHT22;40172;53.022;7.012;2023-04-26T03:33:22;1.70;99.90
54260;DHT22;40172;53.022;7.012;2023-04-26T03:35:48;1.60;99.90
54260;DHT22;40172;53.022;7.012;2023-04-26T03:38:14;1.60;99.90
54260;DHT22;40172;53.022;7.012;2023-04-26T03:40:39;1.50;99.90
54260;DHT22;40172;53.022;7.012;2023-04-26T03:43:05;1.50;99.90
54260;DHT22;40172;53.022;7.012;2023-04-26T03:45:31;1.40;99.90
54260;DHT22;40172;53.022;7.012;2023-04-26T03:47:56;1.40;99.90
54260;DHT22;40172;53.022;7.012;2023-04-26T03:50:22;1.50;99.90
54260;DHT22;40172;53.022;7.012;2023-04-26T03:52:47;1.30;99.90
54260;DHT22;40172;53.022;7.012;2023-04-26T03:55:13;1.40;99.90
54260;DHT22;40172;53.022;7.012;2023-04-26T03:57:39;1.40;99.90
54260;DHT22;40172;53.022;7.012;2023-04-26T04:00:05;1.70;99.90
54260;DHT22;40172;53.022;7.012;2023-04-26T04:02:34;1.60;99.90
54260;DHT22;40172;53.022;7.012;2023-04-26T04:05:00;1.70;99.90
54260;DHT22;40172;53.022;7.012;2023-04-26T04:07:25;1.80;99.90
54260;DHT22;40172;53.022;7.012;2023-04-26T04:09:51;2.00;99.90
54260;DHT22;40172;53.022;7.012;2023-04-26T04:12:16;2.00;99.90
54260;DHT22;40172;53.022;7.012;2023-04-26T04:14:42;2.10;99.90
54260;DHT22;40172;53.022;7.012;2023-04-26T04:17:08;3.60;99.90
54260;DHT22;40172;53.022;7.012;2023-04-26T04:19:33;2.20;99.90
54260;DHT22;40172;53.022;7.012;2023-04-26T04:21:59;2.40;99.90
54260;DHT22;40172;53.022;7.012;2023-04-26T04:24:25;2.30;99.90
54260;DHT22;40172;53.022;7.012;2023-04-26T04:26:50;2.30;99.90
54260;DHT22;40172;53.022;7.012;2023-04-26T04:29:16;2.30;99.90
54260;DHT22;40172;53.022;7.012;2023-04-26T04:31:41;2.20;99.90
54260;DHT22;40172;53.022;7.012;2023-04-26T04:34:07;2.20;99.90
54260;DHT22;40172;53.022;7.012;2023-04-26T04:36:33;2.20;99.90
54260;DHT22;40172;53.022;7.012;2023-04-26T04:38:59;2.10;99.90
54260;DHT22;40172;53.022;7.012;2023-04-26T04:41:24;2.30;99.90
54260;DHT22;40172;53.022;7.012;2023-04-26T04:43:50;2.10;99.90
54260;DHT22;40172;53.022;7.012;2023-04-26T04:46:17;2.20;99.90
54260;DHT22;40172;53.022;7.012;2023-04-26T04:48:43;2.20;99.90
54260;DHT22;40172;53.022;7.012;2023-04-26T04:51:09;2.20;99.90
54260;DHT22;40172;53.022;7.012;2023-04-26T04:53:34;2.30;99.90
54260;DHT22;40172;53.022;7.012;2023-04-26T04:56:00;2.30;99.90
54260;DHT22;40172;53.022;7.012;2023-04-26T04:58:25;2.40;99.90
54260;DHT22;40172;53.022;7.012;2023-04-26T05:00:51;2.50;99.90
54260;DHT22;40172;53.022;7.012;2023-04-26T05:03:19;2.50;99.90
54260;DHT22;40172;53.022;7.012;2023-04-26T05:05:44;2.60;99.90
54260;DHT22;40172;53.022;7.012;2023-04-26T05:08:10;2.60;99.90
54260;DHT22;40172;53.022;7.012;2023-04-26T05:10:36;2.70;99.90
54260;DHT22;40172;53.022;7.012;2023-04-26T05:13:01;3.00;99.90
54260;DHT22;40172;53.022;7.012;2023-04-26T05:15:27;3.00;99.90
54260;DHT22;40172;53.022;7.012;2023-04-26T05:17:52;2.90;99.90
54260;DHT22;40172;53.022;7.012;2023-04-26T05:20:20;2.90;99.90
54260;DHT22;40172;53.022;7.012;2023-04-26T05:22:46;3.00;99.90
54260;DHT22;40172;53.022;7.012;2023-04-26T05:25:11;3.00;99.90
54260;DHT22;40172;53.022;7.012;2023-04-26T05:27:38;3.10;99.90
54260;DHT22;40172;53.022;7.012;2023-04-26T05:30:06;3.20;99.90
54260;DHT22;40172;53.022;7.012;2023-04-26T05:32:32;3.20;99.90
54260;DHT22;40172;53.022;7.012;2023-04-26T05:34:58;3.30;99.90
54260;DHT22;40172;53.022;7.012;2023-04-26T05:37:23;3.40;99.90
54260;DHT22;40172;53.022;7.012;2023-04-26T05:39:49;3.40;99.90
54260;DHT22;40172;53.022;7.012;2023-04-26T05:42:15;3.50;99.90
54260;DHT22;40172;53.022;7.012;2023-04-26T05:44:40;3.60;99.90
54260;DHT22;40172;53.022;7.012;2023-04-26T05:47:07;3.70;99.90
54260;DHT22;40172;53.022;7.012;2023-04-26T05:49:32;3.70;99.90
54260;DHT22;40172;53.022;7.012;2023-04-26T05:51:58;3.80;99.90
54260;DHT22;40172;53.022;7.012;2023-04-26T05:54:25;3.80;99.90
54260;DHT22;40172;53.022;7.012;2023-04-26T05:56:51;3.90;99.90
54260;DHT22;40172;53.022;7.012;2023-04-26T05:59:16;4.00;99.90
54260;DHT22;40172;53.022;7.012;2023-04-26T06:01:42;4.00;99.90
54260;DHT22;40172;53.022;7.012;2023-04-26T06:04:08;4.10;99.90
54260;DHT22;40172;53.022;7.012;2023-04-26T06:06:33;4.10;99.90
54260;DHT22;40172;53.022;7.012;2023-04-26T06:08:59;4.10;99.90
54260;DHT22;40172;53.022;7.012;2023-04-26T06:11:25;4.00;99.90
54260;DHT22;40172;53.022;7.012;2023-04-26T06:13:51;4.10;99.90
54260;DHT22;40172;53.022;7.012;2023-04-26T06:16:17;4.00;99.90
54260;DHT22;40172;53.022;7.012;2023-04-26T06:18:42;4.10;99.90
54260;DHT22;40172;53.022;7.012;2023-04-26T06:21:08;4.10;99.90
54260;DHT22;40172;53.022;7.012;2023-04-26T06:23:33;4.20;99.90
54260;DHT22;40172;53.022;7.012;2023-04-26T06:25:59;4.30;99.90
54260;DHT22;40172;53.022;7.012;2023-04-26T06:28:25;4.40;99.90
54260;DHT22;40172;53.022;7.012;2023-04-26T06:30:50;4.50;99.90
54260;DHT22;40172;53.022;7.012;2023-04-26T06:33:16;4.70;99.90
54260;DHT22;40172;53.022;7.012;2023-04-26T06:35:42;4.80;99.90
54260;DHT22;40172;53.022;7.012;2023-04-26T06:38:08;5.00;99.90
54260;DHT22;40172;53.022;7.012;2023-04-26T06:40:37;5.00;99.90
54260;DHT22;40172;53.022;7.012;2023-04-26T06:43:02;3.70;99.90
54260;DHT22;40172;53.022;7.012;2023-04-26T06:45:28;5.50;99.90
54260;DHT22;40172;53.022;7.012;2023-04-26T06:47:54;5.70;99.90
54260;DHT22;40172;53.022;7.012;2023-04-26T06:50:21;5.70;99.90
54260;DHT22;40172;53.022;7.012;2023-04-26T06:52:47;5.70;99.90
54260;DHT22;40172;53.022;7.012;2023-04-26T06:55:12;5.80;99.90
54260;DHT22;40172;53.022;7.012;2023-04-26T06:57:38;5.80;99.90
54260;DHT22;40172;53.022;7.012;2023-04-26T07:00:04;5.90;99.90
54260;DHT22;40172;53.022;7.012;2023-04-26T07:02:30;6.10;99.90
54260;DHT22;40172;53.022;7.012;2023-04-26T07:04:55;6.10;99.90
54260;DHT22;40172;53.022;7.012;2023-04-26T07:07:21;6.20;99.90
54260;DHT22;40172;53.022;7.012;2023-04-26T07:09:47;6.20;99.90
54260;DHT22;40172;53.022;7.012;2023-04-26T07:12:13;6.20;99.90
54260;DHT22;40172;53.022;7.012;2023-04-26T07:14:39;6.30;99.90
54260;DHT22;40172;53.022;7.012;2023-04-26T07:17:11;6.30;99.90
54260;DHT22;40172;53.022;7.012;2023-04-26T07:19:37;6.40;99.90
54260;DHT22;40172;53.022;7.012;2023-04-26T07:22:03;6.50;99.90
54260;DHT22;40172;53.022;7.012;2023-04-26T07:24:29;6.60;99.90
54260;DHT22;40172;53.022;7.012;2023-04-26T07:26:55;6.70;99.90
54260;DHT22;40172;53.022;7.012;2023-04-26T07:29:21;6.70;99.90
54260;DHT22;40172;53.022;7.012;2023-04-26T07:31:47;6.70;99.90
54260;DHT22;40172;53.022;7.012;2023-04-26T07:34:13;6.70;99.90
54260;DHT22;40172;53.022;7.012;2023-04-26T07:36:38;6.70;99.90
54260;DHT22;40172;53.022;7.012;2023-04-26T07:39:04;6.70;99.90
54260;DHT22;40172;53.022;7.012;2023-04-26T07:41:30;6.70;99.90
54260;DHT22;40172;53.022;7.012;2023-04-26T07:43:56;6.70;99.90
54260;DHT22;40172;53.022;7.012;2023-04-26T07:46:22;6.80;99.90
54260;DHT22;40172;53.022;7.012;2023-04-26T07:48:47;6.90;99.90
54260;DHT22;40172;53.022;7.012;2023-04-26T07:51:13;7.00;99.90
54260;DHT22;40172;53.022;7.012;2023-04-26T07:53:39;7.20;99.90
54260;DHT22;40172;53.022;7.012;2023-04-26T07:56:06;7.40;99.90
54260;DHT22;40172;53.022;7.012;2023-04-26T07:58:33;7.50;99.90
54260;DHT22;40172;53.022;7.012;2023-04-26T08:00:59;7.60;99.90
54260;DHT22;40172;53.022;7.012;2023-04-26T08:03:25;7.80;99.90
54260;DHT22;40172;53.022;7.012;2023-04-26T08:05:52;8.10;99.90
54260;DHT22;40172;53.022;7.012;2023-04-26T08:08:18;8.40;99.90
54260;DHT22;40172;53.022;7.012;2023-04-26T08:10:44;8.50;99.90
54260;DHT22;40172;53.022;7.012;2023-04-26T08:13:10;8.90;99.90
54260;DHT22;40172;53.022;7.012;2023-04-26T08:15:36;8.80;99.90
54260;DHT22;40172;53.022;7.012;2023-04-26T08:18:02;8.90;99.90
54260;DHT22;40172;53.022;7.012;2023-04-26T08:20:27;8.80;99.90
54260;DHT22;40172;53.022;7.012;2023-04-26T08:22:56;8.80;99.90
54260;DHT22;40172;53.022;7.012;2023-04-26T08:25:22;8.90;99.90
54260;DHT22;40172;53.022;7.012;2023-04-26T08:27:48;8.90;99.90
54260;DHT22;40172;53.022;7.012;2023-04-26T08:30:14;9.00;99.90
54260;DHT22;40172;53.022;7.012;2023-04-26T08:32:40;9.10;99.90
54260;DHT22;40172;53.022;7.012;2023-04-26T08:35:05;9.10;99.90
54260;DHT22;40172;53.022;7.012;2023-04-26T08:37:31;9.10;99.90
54260;DHT22;40172;53.022;7.012;2023-04-26T08:40:00;9.30;99.90
54260;DHT22;40172;53.022;7.012;2023-04-26T08:42:27;8.80;99.90
54260;DHT22;40172;53.022;7.012;2023-04-26T08:44:53;8.70;99.90
54260;DHT22;40172;53.022;7.012;2023-04-26T08:47:28;8.50;99.90
54260;DHT22;40172;53.022;7.012;2023-04-26T08:50:01;8.40;99.90
54260;DHT22;40172;53.022;7.012;2023-04-26T08:52:29;8.60;99.90
54260;DHT22;40172;53.022;7.012;2023-04-26T08:54:56;9.80;99.90
54260;DHT22;40172;53.022;7.012;2023-04-26T08:57:23;9.10;99.90
54260;DHT22;40172;53.022;7.012;2023-04-26T08:59:49;9.10;99.90
54260;DHT22;40172;53.022;7.012;2023-04-26T09:02:21;9.10;99.90
54260;DHT22;40172;53.022;7.012;2023-04-26T09:04:47;9.30;99.90
54260;DHT22;40172;53.022;7.012;2023-04-26T09:07:21;9.40;99.90
54260;DHT22;40172;53.022;7.012;2023-04-26T09:09:48;9.50;99.90
54260;DHT22;40172;53.022;7.012;2023-04-26T09:12:18;9.60;99.90
54260;DHT22;40172;53.022;7.012;2023-04-26T09:14:47;9.70;99.90
54260;DHT22;40172;53.022;7.012;2023-04-26T09:19:53;9.50;99.90
54260;DHT22;40172;53.022;7.012;2023-04-26T09:22:33;9.60;99.90
54260;DHT22;40172;53.022;7.012;2023-04-26T09:25:01;9.80;99.90
54260;DHT22;40172;53.022;7.012;2023-04-26T09:27:32;9.80;99.90
54260;DHT22;40172;53.022;7.012;2023-04-26T09:30:15;9.80;99.90
54260;DHT22;40172;53.022;7.012;2023-04-26T09:32:53;9.60;99.90
54260;DHT22;40172;53.022;7.012;2023-04-26T09:37:59;8.90;99.90
54260;DHT22;40172;53.022;7.012;2023-04-26T09:40:27;8.20;99.90
54260;DHT22;40172;53.022;7.012;2023-04-26T09:43:02;7.80;99.90
54260;DHT22;40172;53.022;7.012;2023-04-26T09:45:29;7.50;99.90
54260;DHT22;40172;53.022;7.012;2023-04-26T09:50:37;7.40;99.90
54260;DHT22;40172;53.022;7.012;2023-04-26T09:53:02;7.40;99.90
54260;DHT22;40172;53.022;7.012;2023-04-26T09:55:29;7.40;99.90
54260;DHT22;40172;53.022;7.012;2023-04-26T09:57:58;7.50;99.90
54260;DHT22;40172;53.022;7.012;2023-04-26T10:00:26;7.60;99.90
54260;DHT22;40172;53.022;7.012;2023-04-26T10:02:55;7.80;99.90
54260;DHT22;40172;53.022;7.012;2023-04-26T10:05:21;8.00;99.90
54260;DHT22;40172;53.022;7.012;2023-04-26T10:07:48;8.20;99.90
54260;DHT22;40172;53.022;7.012;2023-04-26T10:10:14;8.50;99.90
54260;DHT22;40172;53.022;7.012;2023-04-26T10:12:40;8.60;99.90
54260;DHT22;40172;53.022;7.012;2023-04-26T10:15:12;8.70;99.90
54260;DHT22;40172;53.022;7.012;2023-04-26T10:17:38;8.60;99.90
54260;DHT22;40172;53.022;7.012;2023-04-26T10:20:07;8.30;99.90
54260;DHT22;40172;53.022;7.012;2023-04-26T10:22:38;8.20;99.90
54260;DHT22;40172;53.022;7.012;2023-04-26T10:25:07;8.00;99.90
54260;DHT22;40172;53.022;7.012;2023-04-26T10:30:29;7.70;99.90
54260;DHT22;40172;53.022;7.012;2023-04-26T10:35:21;7.20;99.90
54260;DHT22;40172;53.022;7.012;2023-04-26T10:45:41;6.90;99.90
54260;DHT22;40172;53.022;7.012;2023-04-26T10:48:18;6.90;99.90
54260;DHT22;40172;53.022;7.012;2023-04-26T10:59:11;7.20;99.90
54260;DHT22;40172;53.022;7.012;2023-04-26T11:01:38;7.20;99.90
54260;DHT22;40172;53.022;7.012;2023-04-26T11:04:09;7.20;99.90
54260;DHT22;40172;53.022;7.012;2023-04-26T11:06:54;7.30;99.90
54260;DHT22;40172;53.022;7.012;2023-04-26T11:09:47;7.40;99.90
54260;DHT22;40172;53.022;7.012;2023-04-26T11:12:14;7.50;99.90
54260;DHT22;40172;53.022;7.012;2023-04-26T11:14:41;7.70;99.90
54260;DHT22;40172;53.022;7.012;2023-04-26T11:17:08;7.80;99.90
54260;DHT22;40172;53.022;7.012;2023-04-26T11:19:34;7.90;99.90
54260;DHT22;40172;53.022;7.012;2023-04-26T11:22:01;8.00;99.90
54260;DHT22;40172;53.022;7.012;2023-04-26T11:24:29;8.10;99.90
54260;DHT22;40172;53.022;7.012;2023-04-26T11:26:54;8.30;99.90
54260;DHT22;40172;53.022;7.012;2023-04-26T11:29:20;8.50;99.90
54260;DHT22;40172;53.022;7.012;2023-04-26T11:31:53;8.60;99.90
54260;DHT22;40172;53.022;7.012;2023-04-26T11:34:20;8.60;99.90
54260;DHT22;40172;53.022;7.012;2023-04-26T11:36:47;8.60;99.90
54260;DHT22;40172;53.022;7.012;2023-04-26T11:39:12;8.60;99.90
54260;DHT22;40172;53.022;7.012;2023-04-26T11:41:38;8.60;99.90
54260;DHT22;40172;53.022;7.012;2023-04-26T11:44:04;8.70;99.90
54260;DHT22;40172;53.022;7.012;2023-04-26T11:46:30;8.70;99.90
54260;DHT22;40172;53.022;7.012;2023-04-26T11:48:56;8.80;99.90
54260;DHT22;40172;53.022;7.012;2023-04-26T11:51:22;8.80;99.90
54260;DHT22;40172;53.022;7.012;2023-04-26T11:53:50;8.70;99.90
54260;DHT22;40172;53.022;7.012;2023-04-26T11:56:16;8.80;99.90
54260;DHT22;40172;53.022;7.012;2023-04-26T11:58:50;8.70;99.90
54260;DHT22;40172;53.022;7.012;2023-04-26T12:01:20;8.70;99.90
54260;DHT22;40172;53.022;7.012;2023-04-26T12:03:49;8.60;99.90
54260;DHT22;40172;53.022;7.012;2023-04-26T12:06:15;8.60;99.90
54260;DHT22;40172;53.022;7.012;2023-04-26T12:08:41;8.70;99.90
54260;DHT22;40172;53.022;7.012;2023-04-26T12:11:06;8.60;99.90
54260;DHT22;40172;53.022;7.012;2023-04-26T12:13:32;8.60;99.90
54260;DHT22;40172;53.022;7.012;2023-04-26T12:15:58;8.70;99.90
54260;DHT22;40172;53.022;7.012;2023-04-26T12:18:31;8.60;99.90
54260;DHT22;40172;53.022;7.012;2023-04-26T12:20:58;8.50;99.90
54260;DHT22;40172;53.022;7.012;2023-04-26T12:23:24;8.50;99.90
54260;DHT22;40172;53.022;7.012;2023-04-26T12:25:55;8.50;99.90
54260;DHT22;40172;53.022;7.012;2023-04-26T12:28:22;8.40;99.90
54260;DHT22;40172;53.022;7.012;2023-04-26T12:30:49;8.30;99.90
54260;DHT22;40172;53.022;7.012;2023-04-26T12:33:15;8.10;99.90
54260;DHT22;40172;53.022;7.012;2023-04-26T12:35:41;7.90;99.90
54260;DHT22;40172;53.022;7.012;2023-04-26T12:38:07;7.90;99.90
54260;DHT22;40172;53.022;7.012;2023-04-26T12:40:33;7.90;99.90
54260;DHT22;40172;53.022;7.012;2023-04-26T12:42:58;7.80;99.90
54260;DHT22;40172;53.022;7.012;2023-04-26T12:45:24;7.80;99.90
54260;DHT22;40172;53.022;7.012;2023-04-26T12:47:52;7.90;99.90
54260;DHT22;40172;53.022;7.012;2023-04-26T12:50:18;7.90;99.90
54260;DHT22;40172;53.022;7.012;2023-04-26T12:52:44;7.90;99.90
54260;DHT22;40172;53.022;7.012;2023-04-26T12:55:11;7.90;99.90
54260;DHT22;40172;53.022;7.012;2023-04-26T12:57:39;8.00;99.90
54260;DHT22;40172;53.022;7.012;2023-04-26T13:00:08;8.00;99.90
54260;DHT22;40172;53.022;7.012;2023-04-26T13:02:34;8.10;99.90
54260;DHT22;40172;53.022;7.012;2023-04-26T13:05:00;8.10;99.90
54260;DHT22;40172;53.022;7.012;2023-04-26T13:07:33;8.20;99.90
54260;DHT22;40172;53.022;7.012;2023-04-26T13:09:59;8.30;99.90
54260;DHT22;40172;53.022;7.012;2023-04-26T13:12:25;8.40;99.90
54260;DHT22;40172;53.022;7.012;2023-04-26T13:14:51;8.60;99.90
54260;DHT22;40172;53.022;7.012;2023-04-26T13:17:16;8.80;99.90
54260;DHT22;40172;53.022;7.012;2023-04-26T13:19:42;8.90;99.90
54260;DHT22;40172;53.022;7.012;2023-04-26T13:22:10;8.90;99.90
54260;DHT22;40172;53.022;7.012;2023-04-26T13:24:35;8.90;99.90
54260;DHT22;40172;53.022;7.012;2023-04-26T13:27:02;9.00;99.90
54260;DHT22;40172;53.022;7.012;2023-04-26T13:29:28;9.00;99.90
54260;DHT22;40172;53.022;7.012;2023-04-26T13:31:54;9.00;99.90
54260;DHT22;40172;53.022;7.012;2023-04-26T13:34:20;9.10;99.90
54260;DHT22;40172;53.022;7.012;2023-04-26T13:36:46;9.20;99.90
54260;DHT22;40172;53.022;7.012;2023-04-26T13:39:13;9.30;99.90
54260;DHT22;40172;53.022;7.012;2023-04-26T13:41:38;9.40;99.90
54260;DHT22;40172;53.022;7.012;2023-04-26T13:44:04;9.40;99.90
54260;DHT22;40172;53.022;7.012;2023-04-26T13:46:30;9.80;99.90
54260;DHT22;40172;53.022;7.012;2023-04-26T13:48:56;9.20;99.90
54260;DHT22;40172;53.022;7.012;2023-04-26T13:51:22;9.20;99.90
54260;DHT22;40172;53.022;7.012;2023-04-26T13:53:50;9.10;99.90
54260;DHT22;40172;53.022;7.012;2023-04-26T13:56:16;9.00;99.90
54260;DHT22;40172;53.022;7.012;2023-04-26T13:58:42;9.00;99.90
54260;DHT22;40172;53.022;7.012;2023-04-26T14:01:08;8.70;99.90
54260;DHT22;40172;53.022;7.012;2023-04-26T14:03:34;8.50;99.90
54260;DHT22;40172;53.022;7.012;2023-04-26T14:06:00;8.30;99.90
54260;DHT22;40172;53.022;7.012;2023-04-26T14:08:28;8.10;99.90
54260;DHT22;40172;53.022;7.012;2023-04-26T14:10:54;7.90;99.90
54260;DHT22;40172;53.022;7.012;2023-04-26T14:13:20;7.80;99.90
54260;DHT22;40172;53.022;7.012;2023-04-26T14:15:46;7.70;99.90
54260;DHT22;40172;53.022;7.012;2023-04-26T14:18:11;7.50;99.90
54260;DHT22;40172;53.022;7.012;2023-04-26T14:20:37;7.40;99.90
54260;DHT22;40172;53.022;7.012;2023-04-26T14:23:03;7.40;99.90
54260;DHT22;40172;53.022;7.012;2023-04-26T14:25:28;7.40;99.90
54260;DHT22;40172;53.022;7.012;2023-04-26T14:27:54;7.50;99.90
54260;DHT22;40172;53.022;7.012;2023-04-26T14:30:20;7.60;99.90
54260;DHT22;40172;53.022;7.012;2023-04-26T14:32:45;7.70;99.90
54260;DHT22;40172;53.022;7.012;2023-04-26T14:35:11;7.90;99.90
54260;DHT22;40172;53.022;7.012;2023-04-26T14:37:36;8.10;99.90
54260;DHT22;40172;53.022;7.012;2023-04-26T14:40:03;8.20;99.90
54260;DHT22;40172;53.022;7.012;2023-04-26T14:42:28;8.30;99.90
54260;DHT22;40172;53.022;7.012;2023-04-26T14:44:57;8.40;99.90
54260;DHT22;40172;53.022;7.012;2023-04-26T14:47:23;8.60;99.90
54260;DHT22;40172;53.022;7.012;2023-04-26T14:49:48;8.80;99.90
54260;DHT22;40172;53.022;7.012;2023-04-26T14:52:14;8.90;99.90
54260;DHT22;40172;53.022;7.012;2023-04-26T14:54:41;9.00;99.90
54260;DHT22;40172;53.022;7.012;2023-04-26T14:57:07;9.10;99.90
54260;DHT22;40172;53.022;7.012;2023-04-26T14:59:33;9.20;99.90
54260;DHT22;40172;53.022;7.012;2023-04-26T15:01:58;9.30;99.90
54260;DHT22;40172;53.022;7.012;2023-04-26T15:04:24;9.40;99.90
54260;DHT22;40172;53.022;7.012;2023-04-26T15:06:50;9.40;99.90
54260;DHT22;40172;53.022;7.012;2023-04-26T15:09:15;9.50;99.90
54260;DHT22;40172;53.022;7.012;2023-04-26T15:11:41;9.40;99.90
54260;DHT22;40172;53.022;7.012;2023-04-26T15:14:07;9.40;99.90
54260;DHT22;40172;53.022;7.012;2023-04-26T15:16:33;9.30;99.90
54260;DHT22;40172;53.022;7.012;2023-04-26T15:18:58;9.30;99.90
54260;DHT22;40172;53.022;7.012;2023-04-26T15:21:24;9.20;99.90
54260;DHT22;40172;53.022;7.012;2023-04-26T15:23:51;9.10;99.90
54260;DHT22;40172;53.022;7.012;2023-04-26T15:26:17;9.00;99.90
54260;DHT22;40172;53.022;7.012;2023-04-26T15:28:42;8.80;99.90
54260;DHT22;40172;53.022;7.012;2023-04-26T15:31:08;8.70;99.90
54260;DHT22;40172;53.022;7.012;2023-04-26T15:33:35;8.60;99.90
54260;DHT22;40172;53.022;7.012;2023-04-26T15:36:00;8.50;99.90
54260;DHT22;40172;53.022;7.012;2023-04-26T15:38:26;8.40;99.90
54260;DHT22;40172;53.022;7.012;2023-04-26T15:40:52;8.30;99.90
54260;DHT22;40172;53.022;7.012;2023-04-26T15:43:20;8.20;99.90
54260;DHT22;40172;53.022;7.012;2023-04-26T15:45:47;8.10;99.90
54260;DHT22;40172;53.022;7.012;2023-04-26T15:48:13;8.00;99.90
54260;DHT22;40172;53.022;7.012;2023-04-26T15:50:39;8.00;99.90
54260;DHT22;40172;53.022;7.012;2023-04-26T15:53:05;8.00;99.90
54260;DHT22;40172;53.022;7.012;2023-04-26T15:55:33;8.10;99.90
54260;DHT22;40172;53.022;7.012;2023-04-26T15:57:59;8.20;99.90
54260;DHT22;40172;53.022;7.012;2023-04-26T16:00:25;8.20;99.90
54260;DHT22;40172;53.022;7.012;2023-04-26T16:02:51;8.30;99.90
54260;DHT22;40172;53.022;7.012;2023-04-26T16:05:17;8.40;99.90
54260;DHT22;40172;53.022;7.012;2023-04-26T16:07:43;8.50;99.90
54260;DHT22;40172;53.022;7.012;2023-04-26T16:10:09;8.70;99.90